CGB2 weather

Bishell's Airport
Carstairs, Alberta, Canada

Public forecast

Using degrees Celsius for public forecast. Weather courtesy of forecast.io.

Closest aviation weather report (METAR) to Bishell's Airport

Closest report is Calgary International Airport, 28.2 nm (52.2 km) S. Retrieved 2019/11/17 19:00 UTC (42 minutes ago):

CYYC 171900Z 27024G37KT 40SM FEW040 BKN210 13/M01 A2961 RMK SC1CI5 SC TR SLP047 DENSITY ALT 4700FT

Closest aviation forecast (TAF) to Bishell's Airport

Closest forecast is Calgary International Airport, 28.2 nm (52.2 km) S. Retrieved 2019/11/17 21:39 UTC (0 seconds ago):

TAF CYYC 172038Z 1721/1818 27020G30KT P6SM FEW040 BKN150 FM180200 27015G25KT P6SM FEW080 FM181000 29010KT P6SM SKC RMK NXT FCST BY 180000Z